This is the latest recevied weather packets stored in our database for station/object KGRR-WX. If no packets are shown the sender has not sent any weather packets the latest 10 day(s).
| Time | Temp. | Humidity | Pressure | Rain* | Wind** | Luminosity | Snow |
|---|---|---|---|---|---|---|---|
| 1777491019 | 8.33° C | 89% | 983.7 hPa | 1.52 mm | - | - | - |
| 1777490105 | 8.89° C | 89% | 983.7 hPa | 1.78 mm | - | - | - |
| 1777489222 | 8.89° C | 89% | 983.7 hPa | 1.78 mm | - | - | - |
| 1777488305 | 8.33° C | 85% | 984.1 hPa | 1.52 mm | - | - | - |
| 1777487421 | 9.44° C | 87% | 983 hPa | 1.52 mm | - | - | - |
| 1777486505 | 9.44° C | 87% | 983 hPa | 0.51 mm | - | - | - |
| 1777485618 | 9.44° C | 87% | 983 hPa | 0.51 mm | - | - | - |
| 1777484705 | 9.44° C | 86% | 984.3 hPa | 1.02 mm | - | - | - |
| 1777483814 | 9.44° C | 87% | 984 hPa | 1.02 mm | - | - | - |
| 1777482905 | 9.44° C | 87% | 984 hPa | 0.25 mm | - | - | - |
| 1777482023 | 10° C | 87% | 984 hPa | 0.25 mm | - | - | - |
| 1777481104 | 10° C | 82% | 984.4 hPa | 0 mm | - | - | - |
| 1777480221 | 8.89° C | 88% | 984.3 hPa | 1.27 mm | - | - | - |
| 1777479305 | 8.89° C | 88% | 984.3 hPa | 1.27 mm | - | - | - |
| 1777478423 | 8.89° C | 88% | 984.3 hPa | 1.27 mm | - | - | - |
| 1777477504 | 9.44° C | 86% | 984.9 hPa | 0 mm | - | - | - |
| 1777476614 | 11.11° C | 72% | 985.6 hPa | 0 mm | - | - | - |
| 1777475705 | 10.56° C | 72% | 985.6 hPa | 0 mm | - | - | - |
| 1777474823 | 10.56° C | 72% | 985.6 hPa | 0 mm | - | - | - |
| 1777473904 | 10.56° C | 79% | 985.1 hPa | 0 mm | - | - | - |
| 1777473015 | 10.56° C | 80% | 984.9 hPa | 0 mm | - | - | - |
| 1777472105 | 10° C | 80% | 984.9 hPa | 0 mm | - | - | - |
| 1777471224 | 10° C | 80% | 984.9 hPa | 0 mm | - | - | - |
| 1777470304 | 9.44° C | 78% | 985.7 hPa | 0 mm | - | - | - |
| 1777469421 | 9.44° C | 78% | 985.7 hPa | 0 mm | - | - | - |
* Rain latest hour (hover to see other rain measurements)
** Current wind speed in m/s (hover to see current wind gust speed)